Time;durP1;ratioP1;P1;durP2;ratioP2;P2;SDS_P1;SDS_P2;PMS_P1;PMS_P2;Temp;Humidity;BMP_temperature;BMP_pressure;BME280_temperature;BME280_humidity;BME280_pressure;Samples;Min_cycle;Max_cycle;Signal;HPM_P1;HPM_P2
2022/05/30 00:00:33;;;;;;;;;;;;;;;10.73;61.09;99323.78;1088491;54;19967;-81
2022/05/30 00:01:46;;;;;;;;;;;;;;;10.66;61.43;99325.44;1088584;54;19938;-82
2022/05/30 00:02:48;;;;;;;;;;;;;;;10.67;60.90;99329.78;1088542;54;19969;-81
2022/05/30 00:03:53;;;;;;;;;;;;;;;10.61;61.31;99338.44;1088360;54;19950;-81
2022/05/30 00:04:55;;;;;;;;;;;;;;;10.62;60.97;99324.06;1088428;54;19968;-81
2022/05/30 00:05:59;;;;;;;;;;;;;;;10.60;61.39;99320.72;1088627;54;19929;-81
2022/05/30 00:07:00;;;;;;;;;;;;;;;10.45;62.33;99328.53;1088521;54;19953;-81
2022/05/30 00:08:06;;;;;;;;;;;;;;;10.41;62.43;99330.69;1088465;54;20480;-83
2022/05/30 00:09:13;;;;;;;;;;;;;;;10.41;62.13;99330.69;1088570;54;19927;-82
2022/05/30 00:10:15;;;;;;;;;;;;;;;10.38;62.11;99325.69;1089189;46;19945;-81
2022/05/30 00:11:26;;;;;;;;;;;;;;;10.36;62.00;99330.31;1088573;54;19979;-82
2022/05/30 00:12:27;;;;;;;;;;;;;;;10.36;62.03;99332.13;1088916;39;19942;-81
2022/05/30 00:13:31;;;;;;;;;;;;;;;10.26;63.15;99326.94;1088514;54;19929;-82
2022/05/30 00:14:33;;;;;;;;;;;;;;;10.28;62.70;99317.75;1088523;54;19923;-78
2022/05/30 00:15:39;;;;;;;;;;;;;;;10.31;62.28;99321.94;1088565;54;19946;-81
2022/05/30 00:16:40;;;;;;;;;;;;;;;10.33;62.39;99327.94;1088600;54;19934;-80
2022/05/30 00:17:44;;;;;;;;;;;;;;;10.32;62.52;99330.78;1088576;54;19943;-81
2022/05/30 00:18:48;;;;;;;;;;;;;;;10.33;62.29;99322.63;1088610;54;19964;-81
2022/05/30 00:19:49;;;;;;;;;;;;;;;10.30;62.43;99323.78;1088477;54;19969;-82
2022/05/30 00:20:53;;;;;;;;;;;;;;;10.32;62.32;99320.94;1088329;54;19927;-82
2022/05/30 00:21:55;;;;;;;;;;;;;;;10.30;62.53;99320.25;1089932;46;19934;-81
2022/05/30 00:22:59;;;;;;;;;;;;;;;10.27;63.10;99323.25;1088632;54;19942;-80
2022/05/30 00:24:05;;;;;;;;;;;;;;;10.20;63.29;99320.38;1088587;54;19939;-81
2022/05/30 00:25:07;;;;;;;;;;;;;;;10.21;62.63;99330.09;1088536;54;20681;-81
2022/05/30 00:26:11;;;;;;;;;;;;;;;10.14;63.47;99321.03;1088576;54;19942;-81
2022/05/30 00:27:12;;;;;;;;;;;;;;;10.10;63.45;99323.19;1088633;54;19943;-82
2022/05/30 00:28:16;;;;;;;;;;;;;;;10.10;63.34;99322.34;1088573;54;19930;-82
2022/05/30 00:29:18;;;;;;;;;;;;;;;10.05;63.86;99327.34;1088165;54;19946;-81
2022/05/30 00:30:22;;;;;;;;;;;;;;;10.03;63.59;99327.47;1088204;54;19934;-80
2022/05/30 00:31:23;;;;;;;;;;;;;;;10.04;63.37;99323.00;1088561;54;19952;-80
2022/05/30 00:32:28;;;;;;;;;;;;;;;10.04;63.45;99323.00;1088614;54;19926;-81
2022/05/30 00:33:33;;;;;;;;;;;;;;;10.05;63.24;99322.81;1088549;54;19939;-81
2022/05/30 00:34:37;;;;;;;;;;;;;;;10.08;63.11;99325.19;1088501;54;20176;-80
2022/05/30 00:35:42;;;;;;;;;;;;;;;10.01;63.94;99324.16;1088515;54;19975;-81
2022/05/30 00:36:46;;;;;;;;;;;;;;;9.98;63.79;99325.28;1088349;54;19980;-82
2022/05/30 00:37:52;;;;;;;;;;;;;;;9.93;63.85;99322.25;1088474;54;20657;-81
2022/05/30 00:38:57;;;;;;;;;;;;;;;9.92;64.10;99325.09;1091643;39;20454;-82
2022/05/30 00:40:05;;;;;;;;;;;;;;;9.96;63.46;99324.63;1088605;54;19949;-82
2022/05/30 00:41:09;;;;;;;;;;;;;;;9.91;63.88;99318.09;1095052;31;20603;-82
2022/05/30 00:42:13;;;;;;;;;;;;;;;9.89;64.04;99328.06;1088502;54;19967;-81
2022/05/30 00:43:24;;;;;;;;;;;;;;;9.86;63.90;99323.91;1088477;54;20031;-79
2022/05/30 00:44:26;;;;;;;;;;;;;;;9.92;63.46;99319.75;1088896;39;20346;-80
2022/05/30 00:45:29;;;;;;;;;;;;;;;9.95;63.39;99319.44;1088486;54;19994;-81
2022/05/30 00:46:33;;;;;;;;;;;;;;;9.96;63.49;99324.63;1094036;39;20428;-81
2022/05/30 00:47:35;;;;;;;;;;;;;;;9.83;64.65;99322.34;1088424;54;19938;-80
2022/05/30 00:48:41;;;;;;;;;;;;;;;9.70;65.67;99329.09;1088429;54;20910;-80
2022/05/30 00:49:43;;;;;;;;;;;;;;;9.55;66.34;99336.84;1088518;46;19961;-81
2022/05/30 00:50:52;;;;;;;;;;;;;;;9.43;66.54;99321.09;1088598;54;19943;-81
2022/05/30 00:51:55;;;;;;;;;;;;;;;9.31;66.92;99325.81;1092971;39;20487;-80
2022/05/30 00:52:59;;;;;;;;;;;;;;;9.11;67.39;99333.16;1088201;54;19939;-79
2022/05/30 00:54:01;;;;;;;;;;;;;;;9.08;67.67;99325.47;1087922;54;19939;-80
2022/05/30 00:55:10;;;;;;;;;;;;;;;8.97;67.84;99325.72;1088183;54;20005;-80
2022/05/30 00:56:13;;;;;;;;;;;;;;;8.89;67.95;99323.81;1090992;39;20381;-79
2022/05/30 00:57:25;;;;;;;;;;;;;;;8.90;68.07;99328.16;1088382;46;20045;-80
2022/05/30 00:58:27;;;;;;;;;;;;;;;8.82;68.19;99323.56;1088340;54;20018;-80
2022/05/30 00:59:31;;;;;;;;;;;;;;;8.80;68.36;99324.72;1088204;54;19949;-80
2022/05/30 01:00:41;;;;;;;;;;;;;;;8.80;68.45;99325.53;1088507;54;19962;-80
2022/05/30 01:01:42;;;;;;;;;;;;;;;8.77;67.75;99325.00;1088478;54;20559;-80
2022/05/30 01:06:30;;;;;;;;;;;;;;;8.76;67.96;99324.19;1088525;54;19950;-81
2022/05/30 01:06:45;;;;;;;;;;;;;;;8.76;67.70;99312.66;1101002;39;20602;-81
2022/05/30 01:07:50;;;;;;;;;;;;;;;8.81;67.41;99313.88;1088530;54;19943;-80
2022/05/30 01:08:52;;;;;;;;;;;;;;;8.81;67.65;99315.72;1088539;54;19965;-81
2022/05/30 01:09:56;;;;;;;;;;;;;;;8.92;67.10;99318.19;1088377;54;19942;-81
2022/05/30 01:11:00;;;;;;;;;;;;;;;9.03;66.51;99309.09;1088414;54;19950;-81
2022/05/30 01:12:10;;;;;;;;;;;;;;;9.07;66.59;99310.44;1088471;54;19927;-82
2022/05/30 01:13:16;;;;;;;;;;;;;;;9.16;65.92;99306.03;1088541;54;19942;-80
2022/05/30 01:14:21;;;;;;;;;;;;;;;9.21;65.49;99304.59;1088458;54;19942;-81
2022/05/30 01:15:27;;;;;;;;;;;;;;;9.28;65.46;99307.47;1088430;54;19948;-80
2022/05/30 01:16:28;;;;;;;;;;;;;;;9.34;65.31;99303.38;1088344;54;19927;-80
2022/05/30 01:17:43;;;;;;;;;;;;;;;9.34;65.53;99300.69;1088542;54;19923;-81
2022/05/30 01:18:46;;;;;;;;;;;;;;;9.34;65.34;99303.38;1088522;54;19943;-81
2022/05/30 01:19:57;;;;;;;;;;;;;;;9.39;65.37;99292.22;1091259;46;19934;-79
2022/05/30 01:21:05;;;;;;;;;;;;;;;9.41;64.94;99296.41;1100728;39;20558;-81
2022/05/30 01:22:19;;;;;;;;;;;;;;;9.43;64.94;99301.56;1088451;54;19943;-80
2022/05/30 01:23:38;;;;;;;;;;;;;;;9.38;65.13;99299.38;1088431;54;19934;-80
2022/05/30 01:24:43;;;;;;;;;;;;;;;9.31;65.37;99301.81;1088110;54;19939;-82
2022/05/30 01:25:54;;;;;;;;;;;;;;;9.23;65.67;99300.94;1088224;54;19927;-81
2022/05/30 01:27:10;;;;;;;;;;;;;;;9.08;66.23;99306.81;1087957;54;19946;-81
2022/05/30 01:28:13;;;;;;;;;;;;;;;8.93;67.12;99308.34;1088293;54;20620;-82
2022/05/30 01:29:25;;;;;;;;;;;;;;;8.84;67.24;99310.94;1088228;54;19922;-81
2022/05/30 01:30:27;;;;;;;;;;;;;;;8.78;67.48;99308.03;1088213;54;19930;-81
2022/05/30 01:31:34;;;;;;;;;;;;;;;8.77;67.78;99301.88;1088212;54;19949;-81
2022/05/30 01:32:35;;;;;;;;;;;;;;;8.73;67.74;99297.81;1088240;54;19953;-82
2022/05/30 01:33:40;;;;;;;;;;;;;;;8.70;68.25;99300.78;1088268;54;19927;-81
2022/05/30 01:34:43;;;;;;;;;;;;;;;8.72;68.00;99298.81;1088190;54;19938;-82
2022/05/30 01:35:45;;;;;;;;;;;;;;;8.74;67.68;99299.50;1088227;54;19927;-81
2022/05/30 01:36:49;;;;;;;;;;;;;;;8.79;67.52;99297.19;1088174;54;19923;-81
2022/05/30 01:37:50;;;;;;;;;;;;;;;8.80;67.71;99295.38;1088178;54;19946;-81
2022/05/30 01:38:54;;;;;;;;;;;;;;;8.83;67.76;99295.91;1088225;54;19927;-80
2022/05/30 01:39:55;;;;;;;;;;;;;;;8.82;67.85;99296.09;1088214;54;19938;-80
2022/05/30 01:41:00;;;;;;;;;;;;;;;8.78;67.54;99295.56;1088208;54;19923;-80
2022/05/30 01:42:01;;;;;;;;;;;;;;;8.77;67.95;99293.88;1088288;54;19953;-81
2022/05/30 01:43:05;;;;;;;;;;;;;;;8.76;67.92;99297.53;1088142;39;20849;-80
2022/05/30 01:44:07;;;;;;;;;;;;;;;8.78;67.86;99298.22;1088085;54;19942;-82
2022/05/30 01:45:14;;;;;;;;;;;;;;;8.74;68.16;99295.00;1088227;54;19954;-81
2022/05/30 01:46:16;;;;;;;;;;;;;;;8.69;68.45;99291.13;1089669;39;20575;-82
2022/05/30 01:47:22;;;;;;;;;;;;;;;8.67;68.38;99293.94;1088273;54;19950;-81
2022/05/30 01:48:23;;;;;;;;;;;;;;;8.68;68.64;99294.78;1088212;54;19927;-79
2022/05/30 01:49:33;;;;;;;;;;;;;;;8.74;68.24;99291.50;1088264;54;19927;-82
2022/05/30 01:50:35;;;;;;;;;;;;;;;8.78;68.07;99292.88;1094979;39;20650;-80
2022/05/30 01:51:39;;;;;;;;;;;;;;;8.84;67.54;99286.09;1088190;54;19942;-82
2022/05/30 01:52:40;;;;;;;;;;;;;;;8.90;67.22;99283.66;1088240;54;19942;-80
2022/05/30 01:53:46;;;;;;;;;;;;;;;8.95;67.28;99280.53;1088118;54;19927;-81
2022/05/30 01:54:48;;;;;;;;;;;;;;;9.01;66.96;99285.28;1088162;54;20685;-81
2022/05/30 01:55:52;;;;;;;;;;;;;;;9.03;66.85;99282.44;1088120;54;19943;-80
2022/05/30 01:56:56;;;;;;;;;;;;;;;8.99;67.52;99283.72;1088259;54;19927;-81
2022/05/30 01:57:57;;;;;;;;;;;;;;;8.89;67.84;99281.97;1088185;54;19943;-81
2022/05/30 01:59:01;;;;;;;;;;;;;;;8.85;68.05;99288.63;1088192;54;19927;-80
2022/05/30 02:00:06;;;;;;;;;;;;;;;8.90;67.71;99281.00;1087777;54;20015;-79
2022/05/30 02:01:19;;;;;;;;;;;;;;;8.88;67.91;99285.63;1088120;54;19957;-81
2022/05/30 02:02:26;;;;;;;;;;;;;;;8.89;67.98;99283.81;1088240;54;19927;-79
2022/05/30 02:03:30;;;;;;;;;;;;;;;8.83;68.46;99281.78;1088495;54;19979;-80
2022/05/30 02:04:33;;;;;;;;;;;;;;;8.84;68.66;99284.28;1088411;54;19930;-82
2022/05/30 02:05:37;;;;;;;;;;;;;;;8.90;67.97;99274.84;1088496;54;19927;-81
2022/05/30 02:06:38;;;;;;;;;;;;;;;8.92;68.06;99274.66;1088390;54;19961;-81
2022/05/30 02:07:42;;;;;;;;;;;;;;;8.95;68.15;99277.03;1088535;54;19945;-81
2022/05/30 02:08:47;;;;;;;;;;;;;;;8.86;68.64;99270.78;1088373;54;19995;-80
2022/05/30 02:09:48;;;;;;;;;;;;;;;8.82;68.80;99264.94;1088482;54;19934;-82
2022/05/30 02:10:52;;;;;;;;;;;;;;;8.92;68.03;99272.88;1088476;54;20674;-80
2022/05/30 02:11:54;;;;;;;;;;;;;;;8.97;67.90;99267.06;1088465;54;19949;-80
2022/05/30 02:12:58;;;;;;;;;;;;;;;9.03;67.47;99279.78;1088454;54;19980;-81
2022/05/30 02:13:59;;;;;;;;;;;;;;;9.08;67.18;99265.97;1088490;54;19942;-81
2022/05/30 02:15:03;;;;;;;;;;;;;;;9.11;66.95;99265.69;1088399;47;20560;-81
2022/05/30 02:17:25;;;;;;;;;;;;;;;9.07;67.51;99267.78;1088374;54;19946;-80
2022/05/30 02:18:26;;;;;;;;;;;;;;;9.07;67.21;99269.63;1088496;54;19927;-80
2022/05/30 02:19:31;;;;;;;;;;;;;;;9.11;66.82;99271.00;1088466;54;19945;-81
2022/05/30 02:20:33;;;;;;;;;;;;;;;9.12;66.85;99268.19;1088433;54;19923;-82
2022/05/30 02:21:40;;;;;;;;;;;;;;;9.14;66.63;99260.88;1088421;54;19975;-81
2022/05/30 02:22:41;;;;;;;;;;;;;;;9.14;67.02;99260.03;1092757;46;20658;-81
2022/05/30 02:23:56;;;;;;;;;;;;;;;9.14;66.86;99263.53;1088381;54;19927;-79
2022/05/30 02:24:57;;;;;;;;;;;;;;;9.09;67.27;99270.31;1088414;46;19942;-81
2022/05/30 02:26:01;;;;;;;;;;;;;;;8.99;68.01;99265.06;1088294;54;19986;-80
2022/05/30 02:27:05;;;;;;;;;;;;;;;8.97;67.95;99264.41;1088332;54;19927;-80
2022/05/30 02:28:15;;;;;;;;;;;;;;;8.91;68.17;99257.84;1088400;54;19939;-80
2022/05/30 02:29:29;;;;;;;;;;;;;;;8.89;68.13;99265.16;1088705;46;19950;-82
2022/05/30 02:30:33;;;;;;;;;;;;;;;8.89;68.22;99260.66;1094269;47;19930;-81
2022/05/30 02:31:34;;;;;;;;;;;;;;;8.87;68.18;99262.66;1088317;54;19964;-82
2022/05/30 02:32:41;;;;;;;;;;;;;;;8.86;67.89;99255.66;1088219;54;19949;-80
2022/05/30 02:37:36;;;;;;;;;;;;;;;8.76;68.88;99262.88;1088322;54;19919;-79
2022/05/30 02:38:37;;;;;;;;;;;;;;;8.70;68.92;99260.81;1088339;54;19942;-81
2022/05/30 02:39:41;;;;;;;;;;;;;;;8.67;69.12;99261.13;1088292;54;19922;-79
2022/05/30 02:40:42;;;;;;;;;;;;;;;8.66;68.99;99265.59;1088284;54;19934;-81
2022/05/30 02:41:47;;;;;;;;;;;;;;;8.63;68.95;99263.25;1088116;54;19943;-80
2022/05/30 02:42:48;;;;;;;;;;;;;;;8.61;69.30;99267.03;1088345;54;19943;-81
2022/05/30 02:43:53;;;;;;;;;;;;;;;8.61;69.18;99267.03;1088319;54;20604;-81
2022/05/30 02:44:54;;;;;;;;;;;;;;;8.61;68.87;99257.25;1088288;54;19942;-80
2022/05/30 02:45:58;;;;;;;;;;;;;;;8.60;68.83;99262.72;1088294;54;19943;-81
2022/05/30 02:46:59;;;;;;;;;;;;;;;8.62;68.98;99256.25;1088291;54;19956;-81
2022/05/30 02:48:10;;;;;;;;;;;;;;;8.64;68.74;99261.41;1088345;54;19938;-81
2022/05/30 02:49:11;;;;;;;;;;;;;;;8.65;68.83;99261.25;1090016;47;19952;-81
2022/05/30 02:50:18;;;;;;;;;;;;;;;8.65;68.99;99258.59;1088084;54;19927;-81
2022/05/30 02:51:20;;;;;;;;;;;;;;;8.69;68.68;99259.16;1088353;54;19955;-80
2022/05/30 02:52:34;;;;;;;;;;;;;;;8.70;68.27;99260.81;1088287;54;19927;-81
2022/05/30 02:53:36;;;;;;;;;;;;;;;8.72;68.24;99256.16;1088371;54;19944;-82
2022/05/30 02:54:43;;;;;;;;;;;;;;;8.72;68.29;99253.50;1088341;54;19934;-80
2022/05/30 02:55:44;;;;;;;;;;;;;;;8.73;68.32;99271.16;1097539;39;20618;-80
2022/05/30 02:56:52;;;;;;;;;;;;;;;8.77;68.23;99261.03;1088261;54;20638;-81
2022/05/30 02:57:53;;;;;;;;;;;;;;;8.76;68.43;99257.56;1090490;47;19931;-79
2022/05/30 02:59:01;;;;;;;;;;;;;;;8.76;68.40;99262.88;1089407;47;19933;-81
2022/05/30 03:00:03;;;;;;;;;;;;;;;8.77;68.03;99263.72;1094923;39;20375;-80
2022/05/30 03:01:07;;;;;;;;;;;;;;;8.78;67.99;99260.06;1088300;54;19942;-80
2022/05/30 03:02:09;;;;;;;;;;;;;;;8.77;68.18;99266.38;1088223;54;19927;-81
2022/05/30 03:03:17;;;;;;;;;;;;;;;8.72;68.27;99261.50;1088370;46;19955;-80
2022/05/30 03:04:19;;;;;;;;;;;;;;;8.66;68.39;99272.78;1088248;54;19935;-80
2022/05/30 03:05:26;;;;;;;;;;;;;;;8.58;68.87;99268.19;1088232;54;19927;-80
2022/05/30 03:06:28;;;;;;;;;;;;;;;8.57;68.66;99271.84;1091011;39;20546;-80
2022/05/30 03:07:36;;;;;;;;;;;;;;;8.56;68.62;99263.03;1088236;54;19943;-81
2022/05/30 03:08:37;;;;;;;;;;;;;;;8.52;69.17;99264.31;1095622;47;19923;-80
2022/05/30 03:09:41;;;;;;;;;;;;;;;8.52;68.96;99268.81;1088376;47;19930;-82
2022/05/30 03:10:42;;;;;;;;;;;;;;;8.44;69.28;99269.50;1088354;54;19942;-81
2022/05/30 03:11:46;;;;;;;;;;;;;;;8.40;69.40;99263.66;1088360;54;19943;-78
2022/05/30 03:12:47;;;;;;;;;;;;;;;8.41;69.12;99270.66;1088672;54;19964;-81
2022/05/30 03:13:56;;;;;;;;;;;;;;;8.37;69.70;99276.44;1088633;54;19950;-81
2022/05/30 03:14:57;;;;;;;;;;;;;;;8.36;69.36;99264.09;1090971;39;20744;-82
2022/05/30 03:16:03;;;;;;;;;;;;;;;8.34;69.69;99268.72;1088603;54;19936;-80
2022/05/30 03:17:05;;;;;;;;;;;;;;;8.31;69.67;99263.72;1088557;54;19927;-80
2022/05/30 03:18:11;;;;;;;;;;;;;;;8.31;69.58;99266.38;1088701;54;19926;-80
2022/05/30 03:19:15;;;;;;;;;;;;;;;8.25;69.96;99268.63;1088541;54;19923;-81
2022/05/30 03:20:21;;;;;;;;;;;;;;;8.26;69.74;99275.66;1088612;54;19968;-80
2022/05/30 03:21:24;;;;;;;;;;;;;;;8.24;70.09;99277.63;1092147;39;20581;-80
2022/05/30 03:22:27;;;;;;;;;;;;;;;8.25;69.73;99273.97;1088386;54;20677;-81
2022/05/30 03:23:31;;;;;;;;;;;;;;;8.28;69.92;99275.50;1088497;54;19933;-80
2022/05/30 03:24:32;;;;;;;;;;;;;;;8.31;69.67;99283.19;1088504;54;19938;-79
2022/05/30 03:25:37;;;;;;;;;;;;;;;8.34;69.23;99282.03;1088673;46;19950;-80
2022/05/30 03:26:39;;;;;;;;;;;;;;;8.37;69.23;99289.75;1088569;54;19948;-81
2022/05/30 03:27:43;;;;;;;;;;;;;;;8.40;69.03;99281.47;1088568;54;19933;-80
2022/05/30 03:28:45;;;;;;;;;;;;;;;8.39;68.98;99279.78;1088593;54;19955;-81
2022/05/30 03:29:49;;;;;;;;;;;;;;;8.42;68.83;99287.47;1088571;54;20656;-79
2022/05/30 03:30:51;;;;;;;;;;;;;;;8.40;68.73;99290.28;1088414;54;19942;-81
2022/05/30 03:31:55;;;;;;;;;;;;;;;8.43;68.74;99289.13;1088508;54;19946;-81
2022/05/30 03:33:01;;;;;;;;;;;;;;;8.40;68.95;99286.81;1094635;31;20544;-80
2022/05/30 03:34:05;;;;;;;;;;;;;;;8.38;68.77;99294.09;1088510;54;20576;-79
2022/05/30 03:35:17;;;;;;;;;;;;;;;8.38;68.95;99300.25;1088570;54;20652;-80
2022/05/30 03:36:25;;;;;;;;;;;;;;;8.20;69.26;99308.19;1088678;54;19931;-80
2022/05/30 03:37:26;;;;;;;;;;;;;;;8.03;69.94;99309.81;1088668;54;19943;-81
2022/05/30 03:38:38;;;;;;;;;;;;;;;7.88;70.61;99308.63;1088650;54;19946;-81
2022/05/30 03:39:39;;;;;;;;;;;;;;;7.76;70.64;99315.91;1088507;54;19934;-79
2022/05/30 03:40:46;;;;;;;;;;;;;;;7.68;71.35;99318.47;1088636;54;19943;-82
2022/05/30 03:41:47;;;;;;;;;;;;;;;7.55;71.45;99314.31;1088613;54;20480;-81
2022/05/30 03:42:53;;;;;;;;;;;;;;;7.49;71.54;99322.84;1088713;54;19923;-81
2022/05/30 03:44:00;;;;;;;;;;;;;;;7.36;72.11;99322.31;1088694;54;19927;-81
2022/05/30 03:45:05;;;;;;;;;;;;;;;7.22;72.27;99326.25;1088643;54;19942;-79
2022/05/30 03:46:07;;;;;;;;;;;;;;;7.22;72.80;99327.06;1088691;54;19949;-81
2022/05/30 03:47:11;;;;;;;;;;;;;;;7.21;72.98;99333.38;1088586;54;19927;-82
2022/05/30 03:48:15;;;;;;;;;;;;;;;7.14;73.10;99333.09;1088675;54;20533;-81
2022/05/30 03:49:19;;;;;;;;;;;;;;;7.12;73.02;99328.91;1088669;54;19982;-81
2022/05/30 03:50:24;;;;;;;;;;;;;;;7.02;72.95;99332.38;1088706;54;19937;-83
2022/05/30 03:51:28;;;;;;;;;;;;;;;6.99;73.22;99335.31;1088703;54;19954;-80
2022/05/30 03:52:33;;;;;;;;;;;;;;;6.96;73.61;99332.97;1088662;54;19970;-81
2022/05/30 03:53:37;;;;;;;;;;;;;;;6.90;73.44;99336.16;1088619;54;20528;-81
2022/05/30 03:54:38;;;;;;;;;;;;;;;6.91;73.60;99348.47;1088648;54;19942;-82
2022/05/30 03:55:44;;;;;;;;;;;;;;;6.91;73.39;99342.31;1094714;31;20629;-81
2022/05/30 03:56:47;;;;;;;;;;;;;;;6.77;73.76;99341.72;1088477;54;20611;-80
2022/05/30 03:59:22;;;;;;;;;;;;;;;6.76;73.95;99341.88;1089326;46;19915;-81
2022/05/30 04:02:07;;;;;;;;;;;;;;;6.72;73.64;99347.44;1088669;54;19931;-80
2022/05/30 04:03:09;;;;;;;;;;;;;;;6.76;73.58;99345.38;1088716;54;19919;-83
2022/05/30 04:12:48;;;;;;;;;;;;;;;6.72;74.22;99358.09;1088810;39;20688;-80
2022/05/30 04:13:50;;;;;;;;;;;;;;;6.70;74.30;99360.06;1088951;39;20496;-81
2022/05/30 04:14:55;;;;;;;;;;;;;;;6.69;74.41;99353.06;1089036;46;19965;-80
2022/05/30 04:15:59;;;;;;;;;;;;;;;6.72;74.52;99365.22;1088624;54;19950;-82
2022/05/30 04:17:00;;;;;;;;;;;;;;;6.74;74.65;99362.41;1088491;54;19926;-82
2022/05/30 04:18:08;;;;;;;;;;;;;;;6.68;74.72;99364.66;1088599;54;19978;-81
2022/05/30 04:19:15;;;;;;;;;;;;;;;6.67;75.01;99365.63;1088595;54;19927;-83
2022/05/30 04:20:19;;;;;;;;;;;;;;;6.66;74.86;99360.47;1090262;31;20532;-81
2022/05/30 04:21:23;;;;;;;;;;;;;;;6.67;74.87;99362.97;1088530;54;19950;-83
2022/05/30 04:22:24;;;;;;;;;;;;;;;6.71;74.92;99358.22;1088599;54;19952;-82
2022/05/30 04:23:30;;;;;;;;;;;;;;;6.70;74.87;99362.72;1091396;39;20526;-81
2022/05/30 04:24:31;;;;;;;;;;;;;;;6.73;74.83;99364.25;1088513;54;19939;-81
2022/05/30 04:25:38;;;;;;;;;;;;;;;6.78;74.88;99363.84;1088621;54;19934;-81
2022/05/30 04:26:46;;;;;;;;;;;;;;;6.81;74.56;99363.53;1088546;54;19978;-81
2022/05/30 04:27:52;;;;;;;;;;;;;;;6.81;74.83;99363.53;1090089;39;20522;-81
2022/05/30 04:28:54;;;;;;;;;;;;;;;6.81;75.00;99375.03;1090359;39;20591;-83
2022/05/30 04:29:58;;;;;;;;;;;;;;;6.82;75.05;99373.19;1088502;54;19945;-81
2022/05/30 04:30:59;;;;;;;;;;;;;;;6.84;74.95;99371.25;1088615;54;20473;-81
2022/05/30 04:32:03;;;;;;;;;;;;;;;6.90;74.77;99367.22;1088644;46;19986;-81
2022/05/30 04:33:07;;;;;;;;;;;;;;;6.98;74.41;99370.00;1088612;54;19934;-80
2022/05/30 04:34:17;;;;;;;;;;;;;;;7.16;73.92;99372.84;1091157;39;20508;-81
2022/05/30 04:35:21;;;;;;;;;;;;;;;7.22;73.67;99369.63;1110264;39;20443;-83
2022/05/30 04:36:29;;;;;;;;;;;;;;;7.18;73.78;99365.53;1089651;39;20428;-83
2022/05/30 04:37:33;;;;;;;;;;;;;;;7.23;73.32;99370.44;1088594;54;19927;-81
2022/05/30 04:38:37;;;;;;;;;;;;;;;7.33;73.21;99363.31;1089597;46;19938;-83
2022/05/30 04:39:41;;;;;;;;;;;;;;;7.41;72.65;99366.13;1088526;54;19946;-81
2022/05/30 04:40:45;;;;;;;;;;;;;;;7.47;72.69;99365.53;1088618;54;19930;-81
2022/05/30 04:41:47;;;;;;;;;;;;;;;7.42;72.80;99365.13;1088523;54;19922;-81
2022/05/30 04:42:56;;;;;;;;;;;;;;;7.36;72.96;99363.03;1088575;54;19933;-82
2022/05/30 04:44:01;;;;;;;;;;;;;;;7.27;73.20;99367.38;1088620;54;19931;-81
2022/05/30 04:45:07;;;;;;;;;;;;;;;7.18;73.91;99361.06;1088540;54;19967;-84
2022/05/30 04:46:11;;;;;;;;;;;;;;;7.30;73.61;99364.44;1088424;54;19934;-82
2022/05/30 04:47:15;;;;;;;;;;;;;;;7.43;72.83;99366.78;1088536;54;19935;-82
2022/05/30 04:48:16;;;;;;;;;;;;;;;7.44;72.78;99360.50;1088553;54;19934;-81
2022/05/30 04:49:27;;;;;;;;;;;;;;;7.53;72.86;99365.94;1088573;54;19926;-83
2022/05/30 04:50:34;;;;;;;;;;;;;;;7.56;72.39;99369.16;1088537;54;19927;-82
2022/05/30 04:51:35;;;;;;;;;;;;;;;7.52;72.66;99366.94;1088649;54;19923;-82
2022/05/30 04:52:43;;;;;;;;;;;;;;;7.48;73.06;99366.38;1088636;54;20595;-84
2022/05/30 04:53:44;;;;;;;;;;;;;;;7.53;73.22;99363.28;1088577;54;19973;-81
2022/05/30 04:54:54;;;;;;;;;;;;;;;7.64;72.66;99366.66;1088533;54;19927;-81
2022/05/30 04:55:55;;;;;;;;;;;;;;;7.72;72.20;99365.09;1088592;54;19927;-81
2022/05/30 04:57:07;;;;;;;;;;;;;;;7.67;72.65;99362.88;1088582;54;19971;-82
2022/05/30 04:58:09;;;;;;;;;;;;;;;7.74;72.29;99363.13;1088609;54;19927;-81
2022/05/30 04:59:17;;;;;;;;;;;;;;;7.78;72.18;99368.03;1088614;54;19946;-81
2022/05/30 05:00:24;;;;;;;;;;;;;;;7.77;72.05;99374.31;1088629;54;19939;-83
2022/05/30 05:01:27;;;;;;;;;;;;;;;7.79;72.33;99363.53;1088621;54;19923;-81
2022/05/30 05:02:37;;;;;;;;;;;;;;;7.82;72.36;99368.56;1088550;54;19942;-81
2022/05/30 05:03:44;;;;;;;;;;;;;;;7.81;72.13;99366.91;1088564;54;19951;-85
2022/05/30 05:04:45;;;;;;;;;;;;;;;7.93;71.96;99365.75;1088656;54;19927;-82
2022/05/30 05:06:02;;;;;;;;;;;;;;;8.04;71.64;99370.06;1107828;39;20542;-82
2022/05/30 05:07:07;;;;;;;;;;;;;;;8.19;70.87;99366.91;1088557;54;19978;-82
2022/05/30 05:08:27;;;;;;;;;;;;;;;8.26;70.66;99365.38;1088505;54;20568;-81
2022/05/30 05:09:32;;;;;;;;;;;;;;;8.37;70.28;99361.66;1098280;39;20443;-82
2022/05/30 05:10:44;;;;;;;;;;;;;;;8.44;70.22;99370.72;1088538;54;20671;-82
2022/05/30 05:11:47;;;;;;;;;;;;;;;8.52;70.09;99370.03;1088544;54;19930;-83
2022/05/30 05:12:51;;;;;;;;;;;;;;;8.45;69.55;99369.75;1088527;54;20592;-81
2022/05/30 05:13:52;;;;;;;;;;;;;;;8.43;70.11;99372.56;1093000;46;20759;-81
2022/05/30 05:15:10;;;;;;;;;;;;;;;8.47;69.82;99373.13;1088616;54;19926;-83
2022/05/30 05:16:11;;;;;;;;;;;;;;;8.53;69.74;99372.53;1088610;54;19919;-82
2022/05/30 05:17:15;;;;;;;;;;;;;;;8.54;69.64;99374.22;1088575;54;19971;-82
2022/05/30 05:36:00;;;;;;;;;;;;;;;8.83;68.83;99377.72;1087637;54;19947;-79
2022/05/30 05:37:02;;;;;;;;;;;;;;;8.71;69.20;99364.59;1088091;54;19927;-81
2022/05/30 05:38:06;;;;;;;;;;;;;;;8.72;69.24;99366.28;1088020;54;19950;-82
2022/05/30 05:39:08;;;;;;;;;;;;;;;8.71;69.24;99377.94;1088505;54;19933;-80
2022/05/30 05:40:24;;;;;;;;;;;;;;;8.69;69.22;99373.75;1088568;54;19930;-81
2022/05/30 05:41:25;;;;;;;;;;;;;;;8.71;69.47;99379.72;1088589;54;19949;-82
2022/05/30 05:42:34;;;;;;;;;;;;;;;8.75;69.48;99375.78;1088552;54;19939;-83
2022/05/30 05:43:35;;;;;;;;;;;;;;;8.80;69.13;99368.19;1088463;54;19927;-82
2022/05/30 05:44:43;;;;;;;;;;;;;;;8.81;68.89;99369.84;1088376;54;20012;-80
2022/05/30 05:45:47;;;;;;;;;;;;;;;8.92;69.15;99370.63;1088443;54;19934;-82
2022/05/30 05:46:51;;;;;;;;;;;;;;;9.01;68.61;99375.06;1088467;54;19971;-80
2022/05/30 05:47:52;;;;;;;;;;;;;;;9.13;68.23;99381.84;1088487;54;19974;-80
2022/05/30 05:50:17;;;;;;;;;;;;;;;9.23;67.89;99379.09;1088523;54;19934;-82
2022/05/30 05:51:31;;;;;;;;;;;;;;;9.29;67.54;99383.00;1088885;39;20503;-82
2022/05/30 05:52:35;;;;;;;;;;;;;;;9.40;67.55;99376.59;1088264;54;19935;-83
2022/05/30 05:53:37;;;;;;;;;;;;;;;9.46;67.13;99383.97;1088408;54;19939;-81
2022/05/30 05:54:40;;;;;;;;;;;;;;;9.49;66.96;99376.50;1088287;54;19953;-80
2022/05/30 06:01:37;;;;;;;;;;;;;;;9.75;65.75;99381.03;1087863;54;19934;-83
2022/05/30 06:02:45;;;;;;;;;;;;;;;9.78;65.61;99378.06;1088373;54;19943;-81
2022/05/30 06:03:48;;;;;;;;;;;;;;;9.86;65.62;99377.28;1088497;54;19939;-80
2022/05/30 06:05:03;;;;;;;;;;;;;;;9.82;65.21;99379.41;1088444;54;19934;-81
2022/05/30 06:06:05;;;;;;;;;;;;;;;9.77;65.52;99381.72;1088485;54;19955;-82
2022/05/30 06:07:12;;;;;;;;;;;;;;;9.84;65.65;99382.75;1088468;54;19923;-81
2022/05/30 06:08:14;;;;;;;;;;;;;;;9.93;65.34;99374.81;1088483;54;19951;-81
2022/05/30 06:09:21;;;;;;;;;;;;;;;9.96;65.28;99374.50;1088272;54;19948;-82
2022/05/30 06:10:23;;;;;;;;;;;;;;;10.02;64.95;99379.19;1088366;54;19938;-82
2022/05/30 06:11:27;;;;;;;;;;;;;;;10.08;64.99;99378.59;1097696;39;20487;-82
2022/05/30 06:12:29;;;;;;;;;;;;;;;10.03;64.86;99382.72;1088365;54;19954;-82
2022/05/30 06:13:32;;;;;;;;;;;;;;;10.09;65.01;99377.59;1088395;54;19931;-80
2022/05/30 06:14:34;;;;;;;;;;;;;;;10.17;64.53;99381.31;1088259;54;19935;-82
2022/05/30 06:15:38;;;;;;;;;;;;;;;10.19;64.45;99373.97;1088426;54;19934;-82
2022/05/30 06:16:42;;;;;;;;;;;;;;;10.09;64.48;99379.41;1088315;54;19990;-81
2022/05/30 06:17:44;;;;;;;;;;;;;;;10.13;64.68;99378.94;1088257;54;19943;-81
2022/05/30 06:18:48;;;;;;;;;;;;;;;10.04;64.60;99377.22;1088391;54;19937;-81
2022/05/30 06:19:58;;;;;;;;;;;;;;;9.89;64.74;99384.97;1088421;54;19967;-82
2022/05/30 06:20:59;;;;;;;;;;;;;;;9.80;65.39;99376.09;1088332;54;19942;-81
2022/05/30 06:22:04;;;;;;;;;;;;;;;9.72;65.76;99383.19;1088233;54;19947;-81
2022/05/30 06:23:08;;;;;;;;;;;;;;;9.80;65.54;99385.91;1088384;54;19923;-81
2022/05/30 06:24:14;;;;;;;;;;;;;;;9.90;65.32;99386.66;1088179;54;19946;-79
2022/05/30 06:25:15;;;;;;;;;;;;;;;9.91;64.69;99390.16;1087746;54;19977;-81